Time;durP1;ratioP1;P1;durP2;ratioP2;P2;SDS_P1;SDS_P2;PMS_P1;PMS_P2;Temp;Humidity;BMP_temperature;BMP_pressure;BME280_temperature;BME280_humidity;BME280_pressure;Samples;Min_cycle;Max_cycle;Signal;HPM_P1;HPM_P2
2021/03/29 00:01:54;;;;;;;1999.90;999.90;;;;;;;11.79;100.00;-18222.72;5039994;28;20547;-28
2021/03/29 00:04:39;;;;;;;1999.90;999.90;;;;;;;11.71;100.00;-18220.84;5040251;28;20204;-28
2021/03/29 00:07:28;;;;;;;1999.90;999.90;;;;;;;11.92;100.00;-18226.19;5040314;28;20201;-28
2021/03/29 00:10:15;;;;;;;1999.90;999.90;;;;;;;11.84;100.00;-18224.19;5042257;28;20236;-28
2021/03/29 00:13:03;;;;;;;1999.90;999.90;;;;;;;11.90;99.98;-18225.78;5040693;28;20197;-28
2021/03/29 00:15:53;;;;;;;1999.90;999.90;;;;;;;11.81;100.00;-18223.38;5039679;28;20207;-29
2021/03/29 00:18:41;;;;;;;1999.90;999.90;;;;;;;11.62;100.00;-18218.31;5039390;28;20196;-29
2021/03/29 00:21:29;;;;;;;1999.90;999.90;;;;;;;11.72;100.00;-18221.13;5041651;28;20267;-29
2021/03/29 00:24:17;;;;;;;1999.90;999.90;;;;;;;11.65;100.00;-18219.09;5039849;28;20496;-28
2021/03/29 00:27:06;;;;;;;1999.90;999.90;;;;;;;11.54;100.00;-18216.31;5040146;28;20350;-29
2021/03/29 00:29:52;;;;;;;1999.90;999.90;;;;;;;11.33;100.00;-18210.81;5046858;28;20235;-27
2021/03/29 00:32:39;;;;;;;1999.90;999.90;;;;;;;11.58;100.00;-18217.38;5040346;28;20306;-27
2021/03/29 00:35:27;;;;;;;1999.90;999.90;;;;;;;11.38;100.00;-18212.03;5039606;28;20255;-28
2021/03/29 00:38:15;;;;;;;1999.90;999.90;;;;;;;11.53;100.00;-18216.03;5039688;28;20220;-27
2021/03/29 00:41:10;;;;;;;1999.90;999.90;;;;;;;11.35;100.00;-18211.22;5039456;28;20198;-27
2021/03/29 00:43:56;;;;;;;1999.90;999.90;;;;;;;11.47;100.00;-18214.44;5039252;28;20490;-30
2021/03/29 00:46:44;;;;;;;1999.90;999.90;;;;;;;11.33;100.00;-18210.81;5038980;28;20210;-30
2021/03/29 00:49:31;;;;;;;1999.90;999.90;;;;;;;11.28;100.00;-18209.50;5040135;28;20638;-30
2021/03/29 00:52:18;;;;;;;1999.90;999.90;;;;;;;11.24;100.00;-18208.41;5042873;28;20245;-30
2021/03/29 00:55:13;;;;;;;1999.90;999.90;;;;;;;11.33;100.00;-18210.81;5046690;28;20226;-30
2021/03/29 00:58:04;;;;;;;1999.90;999.90;;;;;;;11.11;100.00;-18204.81;5041733;28;20206;-29
2021/03/29 01:00:54;;;;;;;1999.90;999.90;;;;;;;11.22;100.00;-18207.88;5042209;28;20213;-29
2021/03/29 01:03:43;;;;;;;1999.90;999.90;;;;;;;11.38;100.00;-18212.03;5039950;28;20260;-29
2021/03/29 01:06:31;;;;;;;1999.90;999.90;;;;;;;11.16;100.00;-18206.28;5039425;28;20317;-29
2021/03/29 01:09:20;;;;;;;1999.90;999.90;;;;;;;11.29;100.00;-18209.63;5038968;28;20225;-28
2021/03/29 01:12:10;;;;;;;1999.90;999.90;;;;;;;11.22;99.85;-18207.88;5040554;28;20206;-30
2021/03/29 01:14:58;;;;;;;1999.90;999.90;;;;;;;11.20;98.68;-18207.22;5039022;28;20604;-29
2021/03/29 01:17:47;;;;;;;1999.90;999.90;;;;;;;11.20;98.49;-18207.34;5038567;28;20352;-29
2021/03/29 01:20:42;;;;;;;1999.90;999.90;;;;;;;11.11;98.96;-18204.81;5038549;28;20281;-30
2021/03/29 01:23:33;;;;;;;1999.90;999.90;;;;;;;11.09;99.78;-18204.28;5038412;28;20205;-30
2021/03/29 01:26:36;;;;;;;1999.90;999.90;;;;;;;11.10;97.91;-18204.53;5039388;28;20595;-29
2021/03/29 01:29:30;;;;;;;1999.90;999.90;;;;;;;11.14;97.30;-18205.63;5042124;28;20245;-29
2021/03/29 01:32:17;;;;;;;1999.90;999.90;;;;;;;10.93;99.19;-18200.13;5039454;28;20205;-29
2021/03/29 01:35:10;;;;;;;1999.90;999.90;;;;;;;11.07;97.90;-18203.75;5038728;28;20237;-29
2021/03/29 01:38:00;;;;;;;1999.90;999.90;;;;;;;10.94;97.59;-18200.53;5038862;28;20201;-29
2021/03/29 01:40:50;;;;;;;1999.90;999.90;;;;;;;10.85;97.57;-18198.00;5038283;28;20201;-29
2021/03/29 01:43:39;;;;;;;1999.90;999.90;;;;;;;10.91;95.90;-18199.59;5038328;28;20272;-29
2021/03/29 01:46:25;;;;;;;1999.90;999.90;;;;;;;10.87;96.12;-18198.53;5038132;28;20477;-29
2021/03/29 01:49:14;;;;;;;1999.90;999.90;;;;;;;10.95;95.76;-18200.81;5038057;28;20249;-29
2021/03/29 01:52:05;;;;;;;1999.90;999.90;;;;;;;10.96;95.35;-18200.94;5038733;28;20209;-29
2021/03/29 01:54:54;;;;;;;1999.90;999.90;;;;;;;10.91;94.87;-18199.72;5038880;28;20202;-29
2021/03/29 01:57:40;;;;;;;1999.90;999.90;;;;;;;10.91;95.00;-18199.59;5041599;28;20287;-29
2021/03/29 02:00:36;;;;;;;1999.90;999.90;;;;;;;11.01;94.66;-18202.41;5038355;28;20189;-29
2021/03/29 02:03:25;;;;;;;1999.90;999.90;;;;;;;11.01;93.20;-18202.41;5038501;28;20256;-29
2021/03/29 02:06:12;;;;;;;1999.90;999.90;;;;;;;11.00;94.81;-18202.13;5038731;28;20219;-29
2021/03/29 02:08:59;;;;;;;1999.90;999.90;;;;;;;11.10;93.52;-18204.53;5037569;28;20273;-29
2021/03/29 02:11:47;;;;;;;1999.90;999.90;;;;;;;10.89;94.24;-18199.06;5037774;28;20197;-29
2021/03/29 02:14:34;;;;;;;1999.90;999.90;;;;;;;10.81;95.86;-18197.06;5037555;28;20203;-29
2021/03/29 02:17:25;;;;;;;1999.90;999.90;;;;;;;11.05;94.48;-18203.34;5037249;28;20209;-29
2021/03/29 02:20:13;;;;;;;1999.90;999.90;;;;;;;11.14;95.02;-18205.75;5038043;28;20193;-29
2021/03/29 02:23:01;;;;;;;1999.90;999.90;;;;;;;10.79;95.59;-18196.53;5037751;28;20198;-29
2021/03/29 02:25:50;;;;;;;1999.90;999.90;;;;;;;10.93;93.92;-18200.13;5037951;28;20217;-29
2021/03/29 02:28:38;;;;;;;1999.90;999.90;;;;;;;10.89;94.77;-18199.19;5039929;28;20598;-29
2021/03/29 02:31:32;;;;;;;1999.90;999.90;;;;;;;10.97;94.38;-18201.22;5043434;28;20360;-29
2021/03/29 02:34:34;;;;;;;1999.90;999.90;;;;;;;10.85;94.08;-18198.13;5036240;28;20328;-29
2021/03/29 02:37:19;;;;;;;1999.90;999.90;;;;;;;10.77;95.70;-18196.00;5037484;28;20201;-29
2021/03/29 02:40:08;;;;;;;1999.90;999.90;;;;;;;10.78;95.21;-18196.13;5036699;28;20283;-29
2021/03/29 02:42:56;;;;;;;1999.90;999.90;;;;;;;10.83;96.85;-18197.47;5037140;28;20216;-29
2021/03/29 02:45:47;;;;;;;1999.90;999.90;;;;;;;10.65;96.42;-18192.91;5037312;28;20489;-29
2021/03/29 02:48:36;;;;;;;1999.90;999.90;;;;;;;10.85;95.59;-18198.13;5038956;28;20387;-29
2021/03/29 02:51:24;;;;;;;1999.90;999.90;;;;;;;10.89;94.30;-18199.06;5036954;28;20201;-29
2021/03/29 02:54:14;;;;;;;1999.90;999.90;;;;;;;10.89;95.95;-18199.19;5037018;28;20269;-29
2021/03/29 02:57:02;;;;;;;1999.90;999.90;;;;;;;10.90;94.01;-18199.34;5037266;28;20655;-29
2021/03/29 02:59:49;;;;;;;1999.90;999.90;;;;;;;10.80;94.98;-18196.78;5043879;28;20287;-29
2021/03/29 03:02:36;;;;;;;1999.90;999.90;;;;;;;10.77;94.83;-18195.84;5038676;28;20212;-29
2021/03/29 03:05:28;;;;;;;1999.90;999.90;;;;;;;10.77;94.97;-18195.84;5038130;28;20264;-29
2021/03/29 03:08:15;;;;;;;1999.90;999.90;;;;;;;10.82;94.82;-18197.19;5039503;28;20205;-29
2021/03/29 03:11:03;;;;;;;1999.90;999.90;;;;;;;10.92;93.79;-18200.00;5037980;28;20248;-29
2021/03/29 03:13:54;;;;;;;1999.90;999.90;;;;;;;10.83;94.38;-18197.47;5041364;28;20249;-29
2021/03/29 03:16:43;;;;;;;1999.90;999.90;;;;;;;10.82;94.21;-18197.19;5041704;28;20193;-29
2021/03/29 03:19:32;;;;;;;1999.90;999.90;;;;;;;10.81;94.43;-18196.94;5041384;28;20288;-29
2021/03/29 03:22:18;;;;;;;1999.90;999.90;;;;;;;10.86;94.48;-18198.41;5041273;28;20482;-29
2021/03/29 03:25:18;;;;;;;1999.90;999.90;;;;;;;10.82;94.11;-18197.19;5041832;28;20600;-29
2021/03/29 03:28:06;;;;;;;1999.90;999.90;;;;;;;10.92;93.94;-18199.88;5044332;28;20287;-29
2021/03/29 03:30:55;;;;;;;1999.90;999.90;;;;;;;10.89;94.32;-18199.06;5041106;28;20233;-29
2021/03/29 03:33:43;;;;;;;1999.90;999.90;;;;;;;10.97;93.84;-18201.22;5041537;28;20512;-29
2021/03/29 03:36:32;;;;;;;1999.90;999.90;;;;;;;10.84;93.84;-18197.72;5043491;28;20208;-29
2021/03/29 03:39:20;;;;;;;1999.90;999.90;;;;;;;10.75;94.15;-18195.47;5047907;28;20197;-29
2021/03/29 03:42:09;;;;;;;1999.90;999.90;;;;;;;10.93;94.70;-18200.13;5041212;28;20291;-29
2021/03/29 03:44:55;;;;;;;1999.90;999.90;;;;;;;10.76;92.82;-18195.59;5040917;28;20204;-29
2021/03/29 03:47:43;;;;;;;1999.90;999.90;;;;;;;10.75;94.77;-18195.31;5042206;28;20220;-29
2021/03/29 03:50:29;;;;;;;1999.90;999.90;;;;;;;10.84;94.97;-18197.72;5043761;28;20307;-29
2021/03/29 03:53:16;;;;;;;1999.90;999.90;;;;;;;10.78;93.37;-18196.25;5040585;28;20319;-29
2021/03/29 03:56:04;;;;;;;1999.90;999.90;;;;;;;10.76;93.57;-18195.72;5041299;28;20484;-29
2021/03/29 03:58:53;;;;;;;1999.90;999.90;;;;;;;10.71;94.53;-18194.38;5040619;28;20201;-29
2021/03/29 04:01:52;;;;;;;1999.90;999.90;;;;;;;10.90;94.28;-18199.47;5040014;28;20225;-29
2021/03/29 04:04:38;;;;;;;1999.90;999.90;;;;;;;10.60;94.27;-18191.56;5040069;28;20219;-30
2021/03/29 04:07:24;;;;;;;1999.90;999.90;;;;;;;10.76;94.32;-18195.59;5040535;28;20599;-29
2021/03/29 04:10:17;;;;;;;1999.90;999.90;;;;;;;10.72;94.36;-18194.53;5047553;28;20225;-29
2021/03/29 04:13:07;;;;;;;1999.90;999.90;;;;;;;10.64;94.46;-18192.50;5040396;28;20312;-29
2021/03/29 04:15:54;;;;;;;1999.90;999.90;;;;;;;10.67;94.63;-18193.31;5040047;28;20205;-29
2021/03/29 04:18:40;;;;;;;1999.90;999.90;;;;;;;10.57;95.53;-18190.78;5042096;28;20273;-29
2021/03/29 04:21:29;;;;;;;1999.90;999.90;;;;;;;10.58;95.16;-18191.03;5038883;28;20223;-29
2021/03/29 04:24:15;;;;;;;1999.90;999.90;;;;;;;10.70;95.07;-18194.25;5039865;28;20201;-29
2021/03/29 04:27:08;;;;;;;1999.90;999.90;;;;;;;10.75;94.61;-18195.47;5040004;28;20513;-29
2021/03/29 04:30:00;;;;;;;1999.90;999.90;;;;;;;10.65;96.33;-18192.91;5039506;28;20356;-29
2021/03/29 04:32:48;;;;;;;1999.90;999.90;;;;;;;10.69;95.00;-18193.97;5039263;28;20533;-29
2021/03/29 04:35:34;;;;;;;1999.90;999.90;;;;;;;10.70;95.25;-18194.25;5039028;28;20240;-29
2021/03/29 04:38:20;;;;;;;1999.90;999.90;;;;;;;10.78;95.06;-18196.25;5042093;28;20200;-29
2021/03/29 04:41:09;;;;;;;1999.90;999.90;;;;;;;10.39;95.37;-18185.97;5046315;28;20278;-30
2021/03/29 04:43:54;;;;;;;1999.90;999.90;;;;;;;10.48;96.99;-18188.25;5040522;28;20476;-29
2021/03/29 04:46:41;;;;;;;1999.90;999.90;;;;;;;10.65;94.97;-18192.91;5041672;28;20206;-29
2021/03/29 04:49:28;;;;;;;1999.90;999.90;;;;;;;10.65;95.15;-18192.91;5039053;28;20635;-29
2021/03/29 04:52:15;;;;;;;1999.90;999.90;;;;;;;10.60;95.12;-18191.56;5039088;28;20668;-29
2021/03/29 04:55:01;;;;;;;1999.90;999.90;;;;;;;10.60;95.50;-18191.44;5038832;28;20623;-29
2021/03/29 04:57:47;;;;;;;1999.90;999.90;;;;;;;10.42;96.72;-18186.75;5038369;28;20205;-29
2021/03/29 05:00:34;;;;;;;1999.90;999.90;;;;;;;10.57;95.65;-18190.66;5038304;28;20495;-30
2021/03/29 05:03:20;;;;;;;1999.90;999.90;;;;;;;10.62;95.86;-18191.97;5040023;28;20594;-30
2021/03/29 05:06:07;;;;;;;1999.90;999.90;;;;;;;10.55;95.70;-18190.09;5038693;28;20197;-30
2021/03/29 05:08:54;;;;;;;1999.90;999.90;;;;;;;10.52;96.90;-18189.44;5041125;28;20197;-30
2021/03/29 05:11:47;;;;;;;1999.90;999.90;;;;;;;10.55;96.32;-18190.25;5038856;28;20210;-30
2021/03/29 05:14:33;;;;;;;1999.90;999.90;;;;;;;10.52;96.13;-18189.44;5039947;28;20244;-30
2021/03/29 05:17:19;;;;;;;1999.90;999.90;;;;;;;10.37;97.25;-18185.28;5040086;28;20194;-30
2021/03/29 05:20:07;;;;;;;1999.90;999.90;;;;;;;10.56;97.33;-18190.38;5038556;28;20197;-30
2021/03/29 05:22:53;;;;;;;1999.90;999.90;;;;;;;10.44;97.62;-18187.16;5038487;28;20201;-30
2021/03/29 05:25:40;;;;;;;1999.90;999.90;;;;;;;10.53;98.51;-18189.72;5038578;28;20604;-30
2021/03/29 05:28:26;;;;;;;1999.90;999.90;;;;;;;10.34;98.13;-18184.75;5037786;28;20609;-30
2021/03/29 05:31:13;;;;;;;1999.90;999.90;;;;;;;10.57;97.53;-18190.66;5038796;28;20292;-30
2021/03/29 05:33:58;;;;;;;1999.90;999.90;;;;;;;10.77;94.80;-18196.00;5040350;28;20636;-30
2021/03/29 05:36:44;;;;;;;1999.90;999.90;;;;;;;10.67;96.05;-18193.31;5039126;28;20218;-30
2021/03/29 05:39:36;;;;;;;1999.90;999.90;;;;;;;10.54;97.49;-18189.84;5038700;28;20194;-30
2021/03/29 05:42:23;;;;;;;1999.90;999.90;;;;;;;10.54;97.53;-18189.97;5040300;28;20596;-30
2021/03/29 05:45:11;;;;;;;1999.90;999.90;;;;;;;10.55;98.70;-18190.25;5038939;28;20222;-28
2021/03/29 05:47:58;;;;;;;1999.90;999.90;;;;;;;10.63;97.13;-18192.25;5038238;28;20598;-28
2021/03/29 05:50:44;;;;;;;1999.90;999.90;;;;;;;10.65;96.69;-18192.78;5038259;28;20228;-28
2021/03/29 05:53:30;;;;;;;1999.90;999.90;;;;;;;10.59;98.48;-18191.31;5038005;28;20201;-28
2021/03/29 05:56:21;;;;;;;1999.90;999.90;;;;;;;10.83;97.02;-18197.59;5040580;28;20198;-28
2021/03/29 05:59:11;;;;;;;1999.90;999.90;;;;;;;10.97;94.04;-18201.22;5040198;28;20284;-31
2021/03/29 06:01:57;;;;;;;1999.90;999.90;;;;;;;11.22;92.77;-18207.88;5038179;28;20502;-31
2021/03/29 06:04:45;;;;;;;1999.90;999.90;;;;;;;11.57;91.26;-18216.97;5038170;28;20201;-28
2021/03/29 06:07:31;;;;;;;1999.90;999.90;;;;;;;12.13;87.52;-18231.81;5038876;28;20475;-29
2021/03/29 06:10:20;;;;;;;1999.90;999.90;;;;;;;12.32;85.96;-18236.75;5039671;28;20287;-28
2021/03/29 06:13:16;;;;;;;1999.90;999.90;;;;;;;12.59;82.85;-18243.94;5039701;28;20617;-29
2021/03/29 06:16:07;;;;;;;1999.90;999.90;;;;;;;12.46;82.61;-18240.47;5038542;28;20198;-29
2021/03/29 06:18:59;;;;;;;1999.90;999.90;;;;;;;12.00;85.11;-18228.47;5037688;28;20279;-28
2021/03/29 06:21:52;;;;;;;1999.90;999.90;;;;;;;11.86;85.54;-18224.59;5040373;28;20201;-29
2021/03/29 06:24:58;;;;;;;1999.90;999.90;;;;;;;11.95;87.38;-18227.13;5037726;28;20621;-30
2021/03/29 06:27:49;;;;;;;1999.90;999.90;;;;;;;12.24;86.80;-18234.75;5037342;28;20733;-30
2021/03/29 06:30:37;;;;;;;1999.90;999.90;;;;;;;11.56;87.90;-18216.84;5037203;28;20205;-30
2021/03/29 06:33:24;;;;;;;1999.90;999.90;;;;;;;11.75;89.85;-18221.78;5036692;28;20200;-30
2021/03/29 06:36:24;;;;;;;1999.90;999.90;;;;;;;12.08;88.61;-18230.59;5037777;28;20299;-31
2021/03/29 06:39:12;;;;;;;1999.90;999.90;;;;;;;12.47;86.44;-18240.63;5037030;28;20267;-30
2021/03/29 06:42:08;;;;;;;1999.90;999.90;;;;;;;13.63;79.23;-18271.16;5038217;28;20202;-31
2021/03/29 06:45:10;;;;;;;1999.90;999.90;;;;;;;14.29;75.03;-18288.50;5036735;28;20199;-31
2021/03/29 06:48:04;;;;;;;1999.90;999.90;;;;;;;14.74;71.20;-18300.50;5037177;28;20205;-28
2021/03/29 06:51:13;;;;;;;1999.90;999.90;;;;;;;13.65;76.21;-18271.84;5037130;28;20205;-30
2021/03/29 06:54:02;;;;;;;1999.90;999.90;;;;;;;13.98;73.42;-18280.50;5036653;28;20201;-31
2021/03/29 06:56:52;;;;;;;1999.90;999.90;;;;;;;14.18;75.27;-18285.69;5036867;28;20201;-31
2021/03/29 06:59:38;;;;;;;1999.90;999.90;;;;;;;14.16;73.98;-18285.03;5035783;28;20225;-28
2021/03/29 07:02:40;;;;;;;1999.90;999.90;;;;;;;13.63;77.83;-18271.16;5036599;28;20209;-29
2021/03/29 07:05:37;;;;;;;1999.90;999.90;;;;;;;13.27;80.14;-18261.69;5037260;28;20193;-31
2021/03/29 07:08:26;;;;;;;1999.90;999.90;;;;;;;13.45;80.36;-18266.63;5036878;28;20252;-30
2021/03/29 07:11:14;;;;;;;1999.90;999.90;;;;;;;13.13;82.99;-18257.97;5036770;28;20203;-30
2021/03/29 07:14:07;;;;;;;1999.90;999.90;;;;;;;13.06;82.47;-18256.22;5035661;28;20303;-30
2021/03/29 07:16:56;;;;;;;1999.90;999.90;;;;;;;13.66;80.03;-18271.97;5036648;28;20205;-31
2021/03/29 07:19:43;;;;;;;1999.90;999.90;;;;;;;13.62;80.75;-18270.91;5036773;28;20624;-31
2021/03/29 07:22:35;;;;;;;1999.90;999.90;;;;;;;14.83;75.33;-18302.91;5037206;28;20267;-31
2021/03/29 07:25:35;;;;;;;1999.90;999.90;;;;;;;14.48;75.42;-18293.56;5037471;28;20201;-31
2021/03/29 07:28:21;;;;;;;1999.90;999.90;;;;;;;14.25;75.46;-18287.44;5036672;28;20609;-30
2021/03/29 07:31:10;;;;;;;1999.90;999.90;;;;;;;14.01;77.57;-18281.16;5036450;28;20292;-30
2021/03/29 07:33:59;;;;;;;1999.90;999.90;;;;;;;14.16;79.12;-18285.03;5035548;28;20244;-31
2021/03/29 07:36:50;;;;;;;1999.90;999.90;;;;;;;14.60;76.40;-18296.63;5036420;28;20201;-30
2021/03/29 07:39:42;;;;;;;1999.90;999.90;;;;;;;14.39;77.19;-18291.16;5037005;28;20217;-31
2021/03/29 07:42:50;;;;;;;1999.90;999.90;;;;;;;15.17;74.52;-18311.69;5036738;28;20197;-28
2021/03/29 07:45:46;;;;;;;1999.90;999.90;;;;;;;14.80;74.08;-18302.09;5037039;28;20197;-30
2021/03/29 07:48:35;;;;;;;1999.90;999.90;;;;;;;15.28;73.45;-18314.63;5037396;28;20201;-31
2021/03/29 07:51:24;;;;;;;1999.90;999.90;;;;;;;15.61;71.83;-18323.28;5037136;28;20193;-28
2021/03/29 07:54:32;;;;;;;1999.90;999.90;;;;;;;16.93;65.53;-18357.75;5041453;28;20223;-29
2021/03/29 07:58:01;;;;;;;1999.90;999.90;;;;;;;16.41;66.57;-18344.16;5036935;28;20202;-28
2021/03/29 08:01:00;;;;;;;1999.90;999.90;;;;;;;16.26;66.69;-18340.19;5042228;28;20292;-28
2021/03/29 08:03:57;;;;;;;1999.90;999.90;;;;;;;17.04;66.51;-18360.66;5041668;28;20333;-28
2021/03/29 08:06:45;;;;;;;1999.90;999.90;;;;;;;17.08;65.52;-18361.84;5040629;28;20590;-28
2021/03/29 08:09:44;;;;;;;1999.90;999.90;;;;;;;16.87;nan;-18356.41;5039999;28;20206;-28
2021/03/29 08:12:31;;;;;;;1999.90;999.90;;;;;;;16.22;66.94;-18339.25;5039517;28;20205;-29
2021/03/29 08:15:17;;;;;;;1999.90;999.90;;;;;;;17.84;62.08;-18381.66;5040953;28;20203;-29
2021/03/29 08:18:08;;;;;;;1999.90;999.90;;;;;;;17.61;61.63;-18375.69;5039131;28;20608;-29
2021/03/29 08:21:00;;;;;;;1999.90;999.90;;;;;;;17.33;64.30;-18368.25;5021992;28;20244;-28
2021/03/29 08:23:49;;;;;;;1999.90;999.90;;;;;;;18.42;61.18;-18396.94;5020341;28;20210;-28
2021/03/29 08:26:39;;;;;;;1999.90;999.90;;;;;;;17.75;62.88;-18379.28;5021799;28;20349;-29
2021/03/29 08:29:31;;;;;;;1999.90;999.90;;;;;;;17.73;64.04;-18378.75;5020350;28;20205;-29
2021/03/29 08:32:29;;;;;;;1999.90;999.90;;;;;;;17.44;64.70;-18371.28;5021241;28;20655;-29
2021/03/29 08:35:18;;;;;;;1999.90;999.90;;;;;;;17.46;67.28;-18371.69;5021934;28;20377;-28
2021/03/29 08:38:11;;;;;;;1999.90;999.90;;;;;;;18.34;62.82;-18394.69;5034971;28;20295;-28
2021/03/29 08:41:06;;;;;;;1999.90;999.90;;;;;;;18.06;61.36;-18387.50;5039870;28;20297;-30
2021/03/29 08:43:54;;;;;;;1999.90;999.90;;;;;;;18.29;61.12;-18393.47;5040249;28;20285;-29
2021/03/29 08:46:44;;;;;;;1999.90;999.90;;;;;;;17.96;60.08;-18384.84;5041057;28;20637;-28
2021/03/29 08:49:33;;;;;;;1999.90;999.90;;;;;;;18.02;59.52;-18386.44;5038606;28;20205;-29
2021/03/29 08:52:24;;;;;;;1999.90;999.90;;;;;;;18.19;61.29;-18390.97;5041432;28;20245;-29
2021/03/29 08:55:15;;;;;;;1999.90;999.90;;;;;;;18.93;58.55;-18410.34;5040226;28;20633;-29
2021/03/29 08:58:02;;;;;;;1999.90;999.90;;;;;;;19.56;59.13;-18426.81;5038799;28;20201;-28
2021/03/29 09:00:49;;;;;;;1999.90;999.90;;;;;;;18.43;56.90;-18397.06;5038741;28;20300;-29
2021/03/29 09:03:35;;;;;;;1999.90;999.90;;;;;;;18.11;56.55;-18388.84;5026262;28;20410;-29
2021/03/29 09:06:22;;;;;;;1999.90;999.90;;;;;;;18.41;56.81;-18396.66;5019523;28;20194;-29
2021/03/29 09:09:13;;;;;;;1999.90;999.90;;;;;;;18.67;55.07;-18403.31;5017952;28;20202;-29
2021/03/29 09:12:00;;;;;;;1999.90;999.90;;;;;;;18.44;54.48;-18397.34;5019164;28;20246;-29
2021/03/29 09:14:46;;;;;;;1999.90;999.90;;;;;;;18.49;55.50;-18398.78;5019551;28;20214;-29
2021/03/29 09:17:33;;;;;;;1999.90;999.90;;;;;;;18.93;53.44;-18410.22;5019115;28;20289;-29
2021/03/29 09:20:23;;;;;;;1999.90;999.90;;;;;;;18.63;53.51;-18402.25;5018704;28;20295;-29
2021/03/29 09:23:13;;;;;;;1999.90;999.90;;;;;;;18.91;53.93;-18409.81;5018404;28;20415;-28
2021/03/29 09:26:04;;;;;;;1999.90;999.90;;;;;;;18.37;51.29;-18395.59;5018607;28;20262;-28
2021/03/29 09:28:54;;;;;;;1999.90;999.90;;;;;;;19.00;50.00;-18412.06;5021167;28;20717;-28
2021/03/29 09:31:41;;;;;;;1999.90;999.90;;;;;;;18.63;47.96;-18402.25;5021425;28;20201;-29
2021/03/29 09:34:31;;;;;;;1999.90;999.90;;;;;;;19.79;47.89;-18432.63;5022670;28;20293;-29
2021/03/29 09:37:25;;;;;;;1999.90;999.90;;;;;;;19.66;47.11;-18429.19;5018205;28;20200;-29
2021/03/29 09:40:18;;;;;;;1999.90;999.90;;;;;;;19.33;47.10;-18420.56;5020113;28;20635;-28
2021/03/29 09:43:20;;;;;;;1999.90;999.90;;;;;;;19.97;47.93;-18437.41;5018530;28;20284;-28
2021/03/29 09:46:07;;;;;;;1999.90;999.90;;;;;;;19.34;47.61;-18420.81;5020316;28;20195;-28
2021/03/29 09:49:04;;;;;;;1999.90;999.90;;;;;;;20.06;48.20;-18439.66;5020253;28;20281;-29
2021/03/29 09:51:52;;;;;;;1999.90;999.90;;;;;;;18.44;48.87;-18397.34;5019087;28;20201;-29
2021/03/29 09:54:38;;;;;;;1999.90;999.90;;;;;;;18.67;49.12;-18403.44;5017521;28;20355;-29
2021/03/29 09:57:24;;;;;;;1999.90;999.90;;;;;;;18.66;49.15;-18403.19;5018124;28;20276;-28
2021/03/29 10:00:22;;;;;;;1999.90;999.90;;;;;;;19.14;48.63;-18415.78;5018191;28;20291;-29
2021/03/29 10:03:09;;;;;;;1999.90;999.90;;;;;;;20.63;46.66;-18454.63;5019182;28;20207;-30
2021/03/29 10:05:57;;;;;;;1999.90;999.90;;;;;;;19.52;47.26;-18425.75;5031500;28;20215;-30
2021/03/29 10:08:55;;;;;;;1999.90;999.90;;;;;;;18.64;46.99;-18402.50;5037348;28;20263;-29
2021/03/29 10:11:44;;;;;;;1999.90;999.90;;;;;;;19.17;44.45;-18416.44;5037118;28;20302;-29
2021/03/29 10:14:40;;;;;;;1999.90;999.90;;;;;;;19.59;44.53;-18427.47;5036366;28;20201;-29
2021/03/29 10:17:28;;;;;;;1999.90;999.90;;;;;;;20.46;43.16;-18450.13;5040431;28;20210;-29
2021/03/29 10:20:19;;;;;;;1999.90;999.90;;;;;;;19.39;43.28;-18422.28;5037487;28;20647;-29
2021/03/29 10:23:23;;;;;;;1999.90;999.90;;;;;;;19.65;43.11;-18428.91;5036917;28;20695;-29
2021/03/29 10:26:22;;;;;;;1999.90;999.90;;;;;;;20.00;42.85;-18438.06;5036661;28;20597;-29
2021/03/29 10:29:09;;;;;;;1999.90;999.90;;;;;;;20.35;41.38;-18447.34;5028109;28;20195;-29
2021/03/29 10:31:55;;;;;;;1999.90;999.90;;;;;;;20.48;41.03;-18450.81;5025723;28;20628;-29
2021/03/29 10:34:46;;;;;;;1999.90;999.90;;;;;;;20.34;41.43;-18446.94;5027193;28;20236;-29
2021/03/29 10:37:33;;;;;;;1999.90;999.90;;;;;;;20.64;42.21;-18455.03;5031003;28;20671;-29
2021/03/29 10:40:20;;;;;;;1999.90;999.90;;;;;;;20.82;40.13;-18459.53;5027763;28;20222;-29
2021/03/29 10:43:09;;;;;;;1999.90;999.90;;;;;;;20.99;41.13;-18464.03;5025727;28;20652;-29
2021/03/29 10:45:56;;;;;;;1999.90;999.90;;;;;;;20.48;40.36;-18450.66;5026934;28;20363;-30
2021/03/29 10:48:45;;;;;;;1999.90;999.90;;;;;;;20.88;39.71;-18461.13;5029068;28;20609;-29
2021/03/29 10:51:31;;;;;;;1999.90;999.90;;;;;;;20.16;39.43;-18442.44;5026773;28;20205;-29
2021/03/29 10:54:20;;;;;;;1999.90;999.90;;;;;;;21.92;39.33;-18488.28;5031390;28;20213;-29
2021/03/29 10:57:10;;;;;;;1999.90;999.90;;;;;;;21.33;38.04;-18472.94;5027217;28;20271;-29
2021/03/29 10:59:56;;;;;;;1999.90;999.90;;;;;;;21.09;37.63;-18466.69;5019423;28;20337;-29
2021/03/29 11:02:41;;;;;;;1999.90;999.90;;;;;;;21.94;37.98;-18488.94;5016679;28;20204;-29
2021/03/29 11:05:30;;;;;;;1999.90;999.90;;;;;;;21.55;38.99;-18478.63;5027417;28;20208;-29
2021/03/29 11:08:19;;;;;;;1999.90;999.90;;;;;;;21.81;39.55;-18485.38;5027840;28;20596;-29
2021/03/29 11:11:06;;;;;;;1999.90;999.90;;;;;;;22.13;38.78;-18493.72;5029876;28;20312;-30
2021/03/29 11:13:55;;;;;;;1999.90;999.90;;;;;;;21.40;38.63;-18474.78;5026223;28;20264;-30
2021/03/29 11:16:50;;;;;;;1999.90;999.90;;;;;;;21.31;37.11;-18472.53;5024582;28;20346;-29
2021/03/29 11:19:43;;;;;;;1999.90;999.90;;;;;;;21.01;39.21;-18464.44;5029296;28;20206;-29
2021/03/29 11:22:30;;;;;;;1999.90;999.90;;;;;;;21.03;37.93;-18464.97;5027729;28;20223;-29
2021/03/29 11:25:17;;;;;;;1999.90;999.90;;;;;;;21.18;38.19;-18468.94;5026598;28;20206;-29
2021/03/29 11:28:04;;;;;;;1999.90;999.90;;;;;;;21.17;37.76;-18468.69;5015078;28;20259;-29
2021/03/29 11:30:51;;;;;;;1999.90;999.90;;;;;;;21.61;38.42;-18480.34;5027326;28;20305;-29
2021/03/29 11:33:39;;;;;;;1999.90;999.90;;;;;;;21.03;38.99;-18464.97;5030335;28;20504;-29
2021/03/29 11:36:27;;;;;;;1999.90;999.90;;;;;;;22.03;37.18;-18491.19;5031447;28;20219;-29
2021/03/29 11:39:16;;;;;;;1999.90;999.90;;;;;;;21.97;36.87;-18489.59;5032099;28;20543;-29
2021/03/29 11:42:04;;;;;;;1999.90;999.90;;;;;;;22.72;36.82;-18509.19;5033653;28;20228;-30
2021/03/29 11:44:52;;;;;;;1999.90;999.90;;;;;;;21.52;37.75;-18477.81;5039326;28;20269;-29
2021/03/29 11:47:40;;;;;;;1999.90;999.90;;;;;;;22.41;36.76;-18501.09;5028323;28;20205;-29
2021/03/29 11:50:29;;;;;;;1999.90;999.90;;;;;;;21.62;37.27;-18480.59;5033478;28;20291;-29
2021/03/29 11:53:19;;;;;;;1999.90;999.90;;;;;;;21.57;37.19;-18479.16;5028998;28;20206;-30
2021/03/29 11:56:06;;;;;;;1999.90;999.90;;;;;;;21.73;37.51;-18483.25;5030590;28;20719;-29
2021/03/29 11:59:05;;;;;;;1999.90;999.90;;;;;;;21.55;38.10;-18478.63;5027073;28;20356;-30
2021/03/29 12:02:01;;;;;;;1999.90;999.90;;;;;;;21.97;37.33;-18489.59;5028415;28;20257;-29
2021/03/29 12:04:54;;;;;;;1999.90;999.90;;;;;;;22.11;37.94;-18493.19;5029827;28;20268;-30
2021/03/29 12:07:50;;;;;;;1999.90;999.90;;;;;;;20.98;39.10;-18463.78;5036196;28;20593;-29
2021/03/29 12:13:43;;;;;;;1999.90;999.90;;;;;;;21.16;38.04;-18468.41;5031583;28;21201;-29
2021/03/29 12:16:38;;;;;;;1999.90;999.90;;;;;;;22.75;37.64;-18509.97;5028238;28;20207;-29
2021/03/29 12:19:32;;;;;;;1999.90;999.90;;;;;;;22.08;36.58;-18492.38;5027550;28;20352;-29
2021/03/29 12:22:26;;;;;;;1999.90;999.90;;;;;;;21.32;37.35;-18472.66;5029538;28;20234;-29
2021/03/29 12:25:17;;;;;;;1999.90;999.90;;;;;;;21.52;36.82;-18477.81;5019123;28;20257;-29
2021/03/29 12:28:07;;;;;;;1999.90;999.90;;;;;;;21.21;36.88;-18469.75;5021675;28;20298;-28
2021/03/29 12:30:56;;;;;;;1999.90;999.90;;;;;;;21.35;36.44;-18473.31;5019093;28;20350;-29